sensor_id;sensor_type;location;lat;lon;timestamp;pressure;altitude;pressure_sealevel;temperature;humidity
10261;BME280;5175;42.606;23.388;2024-02-21T00:02:27;94353.28;;;5.81;100.00
10261;BME280;5175;42.606;23.388;2024-02-21T00:04:54;94357.00;;;5.80;100.00
10261;BME280;5175;42.606;23.388;2024-02-21T00:07:21;94353.84;;;5.83;100.00
10261;BME280;5175;42.606;23.388;2024-02-21T00:09:47;94347.19;;;5.81;100.00
10261;BME280;5175;42.606;23.388;2024-02-21T00:12:14;94342.28;;;5.73;100.00
10261;BME280;5175;42.606;23.388;2024-02-21T00:14:41;94344.13;;;5.72;100.00
10261;BME280;5175;42.606;23.388;2024-02-21T00:17:08;94343.66;;;5.75;100.00
10261;BME280;5175;42.606;23.388;2024-02-21T00:19:36;94346.31;;;5.75;100.00
10261;BME280;5175;42.606;23.388;2024-02-21T00:22:03;94347.19;;;5.81;100.00
10261;BME280;5175;42.606;23.388;2024-02-21T00:24:30;94341.50;;;5.60;100.00
10261;BME280;5175;42.606;23.388;2024-02-21T00:26:57;94343.44;;;5.65;100.00
10261;BME280;5175;42.606;23.388;2024-02-21T00:29:23;94342.75;;;5.58;100.00
10261;BME280;5175;42.606;23.388;2024-02-21T00:31:50;94344.50;;;5.52;100.00
10261;BME280;5175;42.606;23.388;2024-02-21T00:34:17;94337.25;;;5.59;100.00
10261;BME280;5175;42.606;23.388;2024-02-21T00:36:45;94343.56;;;5.58;100.00
10261;BME280;5175;42.606;23.388;2024-02-21T00:39:11;94334.97;;;5.51;100.00
10261;BME280;5175;42.606;23.388;2024-02-21T00:41:38;94336.25;;;5.49;100.00
10261;BME280;5175;42.606;23.388;2024-02-21T00:44:06;94340.56;;;5.55;100.00
10261;BME280;5175;42.606;23.388;2024-02-21T00:46:33;94340.69;;;5.60;100.00
10261;BME280;5175;42.606;23.388;2024-02-21T00:48:59;94340.31;;;5.68;100.00
10261;BME280;5175;42.606;23.388;2024-02-21T00:51:26;94340.22;;;5.63;100.00
10261;BME280;5175;42.606;23.388;2024-02-21T00:53:54;94333.09;;;5.63;100.00
10261;BME280;5175;42.606;23.388;2024-02-21T00:56:21;94339.31;;;5.57;100.00
10261;BME280;5175;42.606;23.388;2024-02-21T00:58:48;94340.25;;;5.51;100.00
10261;BME280;5175;42.606;23.388;2024-02-21T01:01:21;94331.84;;;5.54;100.00
10261;BME280;5175;42.606;23.388;2024-02-21T01:03:47;94329.00;;;5.44;100.00
10261;BME280;5175;42.606;23.388;2024-02-21T01:06:14;94330.25;;;5.53;100.00
10261;BME280;5175;42.606;23.388;2024-02-21T01:08:41;94314.94;;;5.55;100.00
10261;BME280;5175;42.606;23.388;2024-02-21T01:11:09;94320.66;;;5.64;100.00
10261;BME280;5175;42.606;23.388;2024-02-21T01:13:36;94318.03;;;5.52;100.00
10261;BME280;5175;42.606;23.388;2024-02-21T01:16:03;94315.78;;;5.44;100.00
10261;BME280;5175;42.606;23.388;2024-02-21T01:18:29;94309.56;;;5.39;100.00
10261;BME280;5175;42.606;23.388;2024-02-21T01:20:56;94310.81;;;5.48;100.00
10261;BME280;5175;42.606;23.388;2024-02-21T01:23:23;94304.69;;;5.59;100.00
10261;BME280;5175;42.606;23.388;2024-02-21T01:25:49;94308.50;;;5.51;100.00
10261;BME280;5175;42.606;23.388;2024-02-21T01:28:18;94306.88;;;5.50;100.00
10261;BME280;5175;42.606;23.388;2024-02-21T01:30:44;94301.13;;;5.53;100.00
10261;BME280;5175;42.606;23.388;2024-02-21T01:33:11;94301.13;;;5.42;100.00
10261;BME280;5175;42.606;23.388;2024-02-21T01:35:38;94304.25;;;5.50;100.00
10261;BME280;5175;42.606;23.388;2024-02-21T01:38:04;94299.00;;;5.39;100.00
10261;BME280;5175;42.606;23.388;2024-02-21T01:40:31;94300.81;;;5.38;100.00
10261;BME280;5175;42.606;23.388;2024-02-21T01:42:58;94300.94;;;5.32;100.00
10261;BME280;5175;42.606;23.388;2024-02-21T01:45:26;94299.66;;;5.34;100.00
10261;BME280;5175;42.606;23.388;2024-02-21T01:47:53;94296.81;;;5.36;100.00
10261;BME280;5175;42.606;23.388;2024-02-21T01:50:20;94288.66;;;5.26;100.00
10261;BME280;5175;42.606;23.388;2024-02-21T01:52:49;94289.44;;;5.38;100.00
10261;BME280;5175;42.606;23.388;2024-02-21T01:55:16;94289.88;;;5.35;100.00
10261;BME280;5175;42.606;23.388;2024-02-21T01:57:43;94290.25;;;5.38;100.00
10261;BME280;5175;42.606;23.388;2024-02-21T02:00:13;94292.69;;;5.28;100.00
10261;BME280;5175;42.606;23.388;2024-02-21T02:02:42;94266.69;;;5.14;100.00
10261;BME280;5175;42.606;23.388;2024-02-21T02:05:10;94282.41;;;5.32;100.00
10261;BME280;5175;42.606;23.388;2024-02-21T02:07:37;94279.56;;;5.33;100.00
10261;BME280;5175;42.606;23.388;2024-02-21T02:10:05;94286.88;;;5.43;100.00
10261;BME280;5175;42.606;23.388;2024-02-21T02:12:32;94280.13;;;5.35;100.00
10261;BME280;5175;42.606;23.388;2024-02-21T02:14:59;94266.09;;;5.35;100.00
10261;BME280;5175;42.606;23.388;2024-02-21T02:17:26;94287.44;;;5.45;100.00
10261;BME280;5175;42.606;23.388;2024-02-21T02:19:54;94284.81;;;5.45;100.00
10261;BME280;5175;42.606;23.388;2024-02-21T02:22:22;94286.78;;;5.49;100.00
10261;BME280;5175;42.606;23.388;2024-02-21T02:24:51;94286.28;;;5.52;100.00
10261;BME280;5175;42.606;23.388;2024-02-21T02:27:18;94290.91;;;5.45;100.00
10261;BME280;5175;42.606;23.388;2024-02-21T02:29:44;94286.22;;;5.36;100.00
10261;BME280;5175;42.606;23.388;2024-02-21T02:32:11;94286.22;;;5.36;100.00
10261;BME280;5175;42.606;23.388;2024-02-21T02:34:38;94277.22;;;5.48;100.00
10261;BME280;5175;42.606;23.388;2024-02-21T02:37:05;94290.53;;;5.53;100.00
10261;BME280;5175;42.606;23.388;2024-02-21T02:39:31;94269.84;;;5.50;100.00
10261;BME280;5175;42.606;23.388;2024-02-21T02:41:59;94284.53;;;5.58;100.00
10261;BME280;5175;42.606;23.388;2024-02-21T02:44:26;94278.13;;;5.54;100.00
10261;BME280;5175;42.606;23.388;2024-02-21T02:46:53;94273.94;;;5.69;100.00
10261;BME280;5175;42.606;23.388;2024-02-21T02:49:20;94273.13;;;5.57;100.00
10261;BME280;5175;42.606;23.388;2024-02-21T02:51:46;94266.38;;;5.50;100.00
10261;BME280;5175;42.606;23.388;2024-02-21T02:54:13;94277.06;;;5.55;100.00
10261;BME280;5175;42.606;23.388;2024-02-21T02:56:40;94271.31;;;5.58;100.00
10261;BME280;5175;42.606;23.388;2024-02-21T02:59:08;94271.97;;;5.65;100.00
10261;BME280;5175;42.606;23.388;2024-02-21T03:01:34;94278.41;;;5.69;100.00
10261;BME280;5175;42.606;23.388;2024-02-21T03:04:01;94282.09;;;5.68;100.00
10261;BME280;5175;42.606;23.388;2024-02-21T03:06:28;94287.25;;;5.75;100.00
10261;BME280;5175;42.606;23.388;2024-02-21T03:08:55;94292.56;;;5.75;100.00
10261;BME280;5175;42.606;23.388;2024-02-21T03:11:21;94292.09;;;5.78;100.00
10261;BME280;5175;42.606;23.388;2024-02-21T03:13:54;94296.31;;;5.79;100.00
10261;BME280;5175;42.606;23.388;2024-02-21T03:16:22;94274.03;;;5.63;100.00
10261;BME280;5175;42.606;23.388;2024-02-21T03:18:49;94291.28;;;5.77;100.00
10261;BME280;5175;42.606;23.388;2024-02-21T03:21:16;94290.56;;;5.82;100.00
10261;BME280;5175;42.606;23.388;2024-02-21T03:23:42;94296.53;;;5.89;100.00
10261;BME280;5175;42.606;23.388;2024-02-21T03:26:09;94294.94;;;5.88;100.00
10261;BME280;5175;42.606;23.388;2024-02-21T03:28:36;94295.50;;;5.78;100.00
10261;BME280;5175;42.606;23.388;2024-02-21T03:31:05;94301.03;;;5.88;100.00
10261;BME280;5175;42.606;23.388;2024-02-21T03:33:33;94298.63;;;5.87;100.00
10261;BME280;5175;42.606;23.388;2024-02-21T03:35:59;94309.41;;;5.97;100.00
10261;BME280;5175;42.606;23.388;2024-02-21T03:38:26;94307.31;;;5.99;100.00
10261;BME280;5175;42.606;23.388;2024-02-21T03:40:53;94312.53;;;5.94;100.00
10261;BME280;5175;42.606;23.388;2024-02-21T03:43:20;94303.31;;;5.96;100.00
10261;BME280;5175;42.606;23.388;2024-02-21T03:45:46;94313.09;;;5.96;100.00
10261;BME280;5175;42.606;23.388;2024-02-21T03:48:13;94308.97;;;5.88;100.00
10261;BME280;5175;42.606;23.388;2024-02-21T03:50:41;94305.03;;;5.91;100.00
10261;BME280;5175;42.606;23.388;2024-02-21T03:53:08;94317.50;;;5.90;100.00
10261;BME280;5175;42.606;23.388;2024-02-21T03:55:35;94319.34;;;5.90;100.00
10261;BME280;5175;42.606;23.388;2024-02-21T03:58:02;94307.59;;;5.86;100.00
10261;BME280;5175;42.606;23.388;2024-02-21T04:00:28;94319.56;;;5.88;100.00
10261;BME280;5175;42.606;23.388;2024-02-21T04:02:55;94310.53;;;5.73;100.00
10261;BME280;5175;42.606;23.388;2024-02-21T04:05:22;94309.72;;;5.72;100.00
10261;BME280;5175;42.606;23.388;2024-02-21T04:07:50;94313.63;;;5.69;100.00
10261;BME280;5175;42.606;23.388;2024-02-21T04:10:17;94315.91;;;5.78;100.00
10261;BME280;5175;42.606;23.388;2024-02-21T04:12:44;94310.53;;;5.73;100.00
10261;BME280;5175;42.606;23.388;2024-02-21T04:15:11;94301.56;;;5.62;100.00
10261;BME280;5175;42.606;23.388;2024-02-21T04:17:37;94306.06;;;5.61;100.00
10261;BME280;5175;42.606;23.388;2024-02-21T04:20:05;94312.94;;;5.62;100.00
10261;BME280;5175;42.606;23.388;2024-02-21T04:22:34;94310.97;;;5.69;100.00
10261;BME280;5175;42.606;23.388;2024-02-21T04:25:02;94307.63;;;5.74;100.00
10261;BME280;5175;42.606;23.388;2024-02-21T04:27:29;94313.72;;;5.75;100.00
10261;BME280;5175;42.606;23.388;2024-02-21T04:29:55;94302.34;;;5.74;100.00
10261;BME280;5175;42.606;23.388;2024-02-21T04:32:22;94298.03;;;5.56;100.00
10261;BME280;5175;42.606;23.388;2024-02-21T04:34:49;94300.97;;;5.60;100.00
10261;BME280;5175;42.606;23.388;2024-02-21T04:37:16;94291.34;;;5.54;100.00
10261;BME280;5175;42.606;23.388;2024-02-21T04:39:43;94294.00;;;5.54;100.00
10261;BME280;5175;42.606;23.388;2024-02-21T04:42:11;94295.38;;;5.56;100.00
10261;BME280;5175;42.606;23.388;2024-02-21T04:44:38;94297.94;;;5.40;100.00
10261;BME280;5175;42.606;23.388;2024-02-21T04:47:05;94302.19;;;5.41;100.00
10261;BME280;5175;42.606;23.388;2024-02-21T04:49:31;94300.81;;;5.38;100.00
10261;BME280;5175;42.606;23.388;2024-02-21T04:51:58;94307.97;;;5.26;100.00
10261;BME280;5175;42.606;23.388;2024-02-21T04:54:25;94306.81;;;5.22;100.00
10261;BME280;5175;42.606;23.388;2024-02-21T04:56:51;94310.66;;;5.03;100.00
10261;BME280;5175;42.606;23.388;2024-02-21T04:59:20;94308.34;;;5.06;100.00
10261;BME280;5175;42.606;23.388;2024-02-21T05:01:46;94312.94;;;4.99;100.00
10261;BME280;5175;42.606;23.388;2024-02-21T05:04:13;94307.44;;;4.89;100.00
10261;BME280;5175;42.606;23.388;2024-02-21T05:06:40;94282.72;;;4.61;100.00
10261;BME280;5175;42.606;23.388;2024-02-21T05:09:07;94304.56;;;4.56;100.00
10261;BME280;5175;42.606;23.388;2024-02-21T05:11:35;94301.78;;;4.51;100.00
10261;BME280;5175;42.606;23.388;2024-02-21T05:14:01;94288.31;;;4.29;100.00
10261;BME280;5175;42.606;23.388;2024-02-21T05:16:31;94296.91;;;4.25;100.00
10261;BME280;5175;42.606;23.388;2024-02-21T05:18:58;94310.50;;;4.28;100.00
10261;BME280;5175;42.606;23.388;2024-02-21T05:21:24;94320.13;;;4.34;100.00
10261;BME280;5175;42.606;23.388;2024-02-21T05:23:52;94321.84;;;4.29;100.00
10261;BME280;5175;42.606;23.388;2024-02-21T05:26:22;94322.06;;;4.27;100.00
10261;BME280;5175;42.606;23.388;2024-02-21T05:28:49;94324.09;;;4.14;100.00
10261;BME280;5175;42.606;23.388;2024-02-21T05:31:16;94321.97;;;3.93;100.00
10261;BME280;5175;42.606;23.388;2024-02-21T05:33:44;94308.34;;;3.77;100.00
10261;BME280;5175;42.606;23.388;2024-02-21T05:36:11;94324.56;;;3.81;100.00
10261;BME280;5175;42.606;23.388;2024-02-21T05:38:38;94331.50;;;3.94;100.00
10261;BME280;5175;42.606;23.388;2024-02-21T05:41:04;94331.28;;;3.95;100.00
10261;BME280;5175;42.606;23.388;2024-02-21T05:43:31;94326.22;;;3.94;100.00
10261;BME280;5175;42.606;23.388;2024-02-21T05:45:58;94324.63;;;3.93;100.00
10261;BME280;5175;42.606;23.388;2024-02-21T05:48:25;94323.53;;;3.82;100.00
10261;BME280;5175;42.606;23.388;2024-02-21T05:50:53;94331.47;;;3.82;100.00
10261;BME280;5175;42.606;23.388;2024-02-21T05:53:20;94327.00;;;3.83;100.00
10261;BME280;5175;42.606;23.388;2024-02-21T05:55:47;94338.25;;;3.90;100.00
10261;BME280;5175;42.606;23.388;2024-02-21T05:58:14;94336.31;;;3.85;100.00
10261;BME280;5175;42.606;23.388;2024-02-21T06:00:40;94339.00;;;3.78;100.00
10261;BME280;5175;42.606;23.388;2024-02-21T06:03:07;94334.84;;;4.01;100.00
10261;BME280;5175;42.606;23.388;2024-02-21T06:05:37;94326.72;;;4.02;100.00
10261;BME280;5175;42.606;23.388;2024-02-21T06:08:06;94339.50;;;4.17;100.00
10261;BME280;5175;42.606;23.388;2024-02-21T06:10:33;94346.78;;;4.03;100.00
10261;BME280;5175;42.606;23.388;2024-02-21T06:13:00;94347.28;;;4.12;100.00
10261;BME280;5175;42.606;23.388;2024-02-21T06:15:26;94353.75;;;4.16;100.00
10261;BME280;5175;42.606;23.388;2024-02-21T06:17:53;94354.44;;;4.23;100.00
10261;BME280;5175;42.606;23.388;2024-02-21T06:20:20;94357.09;;;4.23;100.00
10261;BME280;5175;42.606;23.388;2024-02-21T06:22:47;94359.34;;;4.19;100.00
10261;BME280;5175;42.606;23.388;2024-02-21T06:25:15;94359.88;;;4.39;100.00
10261;BME280;5175;42.606;23.388;2024-02-21T06:27:42;94370.94;;;4.60;100.00
10261;BME280;5175;42.606;23.388;2024-02-21T06:30:09;94368.44;;;4.65;100.00
10261;BME280;5175;42.606;23.388;2024-02-21T06:32:36;94375.59;;;4.87;100.00
10261;BME280;5175;42.606;23.388;2024-02-21T06:35:04;94354.22;;;4.89;100.00
10261;BME280;5175;42.606;23.388;2024-02-21T06:37:31;94368.25;;;5.13;100.00
10261;BME280;5175;42.606;23.388;2024-02-21T06:39:57;94374.66;;;5.40;100.00
10261;BME280;5175;42.606;23.388;2024-02-21T06:42:26;94370.19;;;5.52;100.00
10261;BME280;5175;42.606;23.388;2024-02-21T06:44:52;94383.69;;;5.79;100.00
10261;BME280;5175;42.606;23.388;2024-02-21T06:47:19;94377.66;;;6.06;100.00
10261;BME280;5175;42.606;23.388;2024-02-21T06:49:48;94382.19;;;6.22;100.00
10261;BME280;5175;42.606;23.388;2024-02-21T06:52:17;94392.22;;;6.49;100.00
10261;BME280;5175;42.606;23.388;2024-02-21T06:54:45;94394.03;;;6.60;100.00
10261;BME280;5175;42.606;23.388;2024-02-21T06:57:12;94397.50;;;6.77;100.00
10261;BME280;5175;42.606;23.388;2024-02-21T06:59:41;94405.16;;;6.90;100.00
10261;BME280;5175;42.606;23.388;2024-02-21T07:02:08;94404.16;;;6.96;100.00
10261;BME280;5175;42.606;23.388;2024-02-21T07:04:35;94397.41;;;6.88;100.00
10261;BME280;5175;42.606;23.388;2024-02-21T07:07:01;94401.22;;;6.92;100.00
10261;BME280;5175;42.606;23.388;2024-02-21T07:09:28;94404.09;;;6.74;100.00
10261;BME280;5175;42.606;23.388;2024-02-21T07:11:57;94403.78;;;6.87;100.00
10261;BME280;5175;42.606;23.388;2024-02-21T07:14:24;94395.81;;;7.04;100.00
10261;BME280;5175;42.606;23.388;2024-02-21T07:16:52;94404.66;;;6.93;100.00
10261;BME280;5175;42.606;23.388;2024-02-21T07:19:18;94398.38;;;6.99;100.00
10261;BME280;5175;42.606;23.388;2024-02-21T07:21:45;94393.16;;;7.04;100.00
10261;BME280;5175;42.606;23.388;2024-02-21T07:24:13;94401.13;;;7.21;100.00
10261;BME280;5175;42.606;23.388;2024-02-21T07:26:41;94414.53;;;7.14;100.00
10261;BME280;5175;42.606;23.388;2024-02-21T07:29:08;94409.16;;;7.26;100.00
10261;BME280;5175;42.606;23.388;2024-02-21T07:31:38;94401.22;;;7.26;100.00
10261;BME280;5175;42.606;23.388;2024-02-21T07:34:07;94407.06;;;7.28;100.00
10261;BME280;5175;42.606;23.388;2024-02-21T07:36:33;94400.31;;;7.37;100.00
10261;BME280;5175;42.606;23.388;2024-02-21T07:39:00;94400.94;;;7.27;100.00
10261;BME280;5175;42.606;23.388;2024-02-21T07:41:28;94407.50;;;7.58;100.00
10261;BME280;5175;42.606;23.388;2024-02-21T07:43:55;94404.41;;;7.83;100.00
10261;BME280;5175;42.606;23.388;2024-02-21T07:46:22;94410.44;;;7.78;100.00
10261;BME280;5175;42.606;23.388;2024-02-21T07:48:50;94406.50;;;7.81;100.00
10261;BME280;5175;42.606;23.388;2024-02-21T07:51:18;94404.63;;;7.81;100.00
10261;BME280;5175;42.606;23.388;2024-02-21T07:53:45;94405.88;;;7.74;100.00
10261;BME280;5175;42.606;23.388;2024-02-21T07:56:13;94389.47;;;7.60;100.00
10261;BME280;5175;42.606;23.388;2024-02-21T07:58:40;94405.28;;;7.88;100.00
10261;BME280;5175;42.606;23.388;2024-02-21T08:01:07;94402.69;;;7.93;100.00
10261;BME280;5175;42.606;23.388;2024-02-21T08:03:34;94393.66;;;7.94;100.00
10261;BME280;5175;42.606;23.388;2024-02-21T08:06:03;94408.00;;;7.93;99.38
10261;BME280;5175;42.606;23.388;2024-02-21T08:08:31;94407.56;;;7.80;97.77
10261;BME280;5175;42.606;23.388;2024-02-21T08:10:57;94405.72;;;7.80;99.51
10261;BME280;5175;42.606;23.388;2024-02-21T08:13:24;94397.47;;;7.82;98.95
10261;BME280;5175;42.606;23.388;2024-02-21T08:15:51;94400.25;;;7.92;98.80
10261;BME280;5175;42.606;23.388;2024-02-21T08:18:18;94408.41;;;8.07;96.57
10261;BME280;5175;42.606;23.388;2024-02-21T08:20:44;94410.78;;;8.03;95.65
10261;BME280;5175;42.606;23.388;2024-02-21T08:23:11;94404.47;;;8.09;96.18
10261;BME280;5175;42.606;23.388;2024-02-21T08:25:39;94384.22;;;8.03;95.19
10261;BME280;5175;42.606;23.388;2024-02-21T08:28:06;94408.31;;;8.40;94.17
10261;BME280;5175;42.606;23.388;2024-02-21T08:30:33;94403.81;;;8.41;93.90
10261;BME280;5175;42.606;23.388;2024-02-21T08:33:00;94402.00;;;8.46;93.10
10261;BME280;5175;42.606;23.388;2024-02-21T08:35:26;94402.66;;;8.32;93.58
10261;BME280;5175;42.606;23.388;2024-02-21T08:37:53;94406.09;;;8.10;94.02
10261;BME280;5175;42.606;23.388;2024-02-21T08:40:20;94403.09;;;8.07;93.60
10261;BME280;5175;42.606;23.388;2024-02-21T08:42:48;94401.97;;;8.25;94.19
10261;BME280;5175;42.606;23.388;2024-02-21T08:45:15;94410.28;;;8.50;92.74
10261;BME280;5175;42.606;23.388;2024-02-21T08:47:42;94401.91;;;8.63;89.22
10261;BME280;5175;42.606;23.388;2024-02-21T08:50:10;94396.53;;;8.85;91.10
10261;BME280;5175;42.606;23.388;2024-02-21T08:52:37;94403.00;;;8.94;90.06
10261;BME280;5175;42.606;23.388;2024-02-21T08:55:04;94397.06;;;9.13;89.98
10261;BME280;5175;42.606;23.388;2024-02-21T08:57:31;94408.50;;;9.14;87.06
10261;BME280;5175;42.606;23.388;2024-02-21T09:00:04;94411.00;;;9.25;87.62
10261;BME280;5175;42.606;23.388;2024-02-21T09:02:35;94407.47;;;9.20;86.09
10261;BME280;5175;42.606;23.388;2024-02-21T09:05:03;94391.19;;;9.11;85.86
10261;BME280;5175;42.606;23.388;2024-02-21T09:07:31;94405.22;;;9.07;84.41
10261;BME280;5175;42.606;23.388;2024-02-21T09:09:58;94403.41;;;9.44;84.92
10261;BME280;5175;42.606;23.388;2024-02-21T09:12:24;94406.78;;;9.71;83.90
10261;BME280;5175;42.606;23.388;2024-02-21T09:14:51;94407.91;;;9.80;84.83
10261;BME280;5175;42.606;23.388;2024-02-21T09:17:19;94411.13;;;9.82;84.10
10261;BME280;5175;42.606;23.388;2024-02-21T09:19:46;94416.91;;;9.69;82.79
10261;BME280;5175;42.606;23.388;2024-02-21T09:22:13;94409.69;;;9.65;81.35
10261;BME280;5175;42.606;23.388;2024-02-21T09:24:40;94414.34;;;9.48;82.42
10261;BME280;5175;42.606;23.388;2024-02-21T09:27:07;94401.31;;;9.51;80.11
10261;BME280;5175;42.606;23.388;2024-02-21T09:29:33;94365.19;;;9.23;79.92
10261;BME280;5175;42.606;23.388;2024-02-21T09:32:00;94408.41;;;9.72;80.65
10261;BME280;5175;42.606;23.388;2024-02-21T09:34:29;94410.16;;;9.57;80.08
10261;BME280;5175;42.606;23.388;2024-02-21T09:36:56;94386.53;;;9.70;80.62
10261;BME280;5175;42.606;23.388;2024-02-21T09:39:23;94408.22;;;9.89;79.19
10261;BME280;5175;42.606;23.388;2024-02-21T09:41:53;94365.19;;;9.65;78.95
10261;BME280;5175;42.606;23.388;2024-02-21T09:44:24;94394.84;;;9.84;78.20
10261;BME280;5175;42.606;23.388;2024-02-21T09:47:02;94403.59;;;10.16;77.35
10261;BME280;5175;42.606;23.388;2024-02-21T09:49:32;94408.13;;;10.21;79.18
10261;BME280;5175;42.606;23.388;2024-02-21T09:52:01;94394.56;;;9.75;80.23
10261;BME280;5175;42.606;23.388;2024-02-21T09:54:29;94407.66;;;9.87;79.99
10261;BME280;5175;42.606;23.388;2024-02-21T09:56:56;94405.31;;;9.95;80.50
10261;BME280;5175;42.606;23.388;2024-02-21T09:59:23;94402.00;;;10.25;80.18
10261;BME280;5175;42.606;23.388;2024-02-21T10:01:50;94402.00;;;10.25;79.88
10261;BME280;5175;42.606;23.388;2024-02-21T10:04:17;94404.66;;;10.20;79.84
10261;BME280;5175;42.606;23.388;2024-02-21T10:06:46;94400.13;;;10.16;79.81
10261;BME280;5175;42.606;23.388;2024-02-21T10:09:20;94401.97;;;10.15;80.36
10261;BME280;5175;42.606;23.388;2024-02-21T10:11:48;94403.06;;;10.19;80.91
10261;BME280;5175;42.606;23.388;2024-02-21T10:14:15;94402.81;;;10.21;78.39
10261;BME280;5175;42.606;23.388;2024-02-21T10:16:42;94396.16;;;10.23;78.01
10261;BME280;5175;42.606;23.388;2024-02-21T10:19:16;94393.72;;;10.17;78.27
10261;BME280;5175;42.606;23.388;2024-02-21T10:21:43;94395.94;;;10.35;77.06
10261;BME280;5175;42.606;23.388;2024-02-21T10:24:12;94393.50;;;10.28;76.55
10261;BME280;5175;42.606;23.388;2024-02-21T10:26:38;94399.16;;;10.47;77.01
10261;BME280;5175;42.606;23.388;2024-02-21T10:29:05;94392.50;;;10.44;75.19
10261;BME280;5175;42.606;23.388;2024-02-21T10:31:32;94369.72;;;10.17;73.76
10261;BME280;5175;42.606;23.388;2024-02-21T10:34:00;94387.88;;;10.30;73.22
10261;BME280;5175;42.606;23.388;2024-02-21T10:36:29;94376.97;;;10.26;74.33
10261;BME280;5175;42.606;23.388;2024-02-21T10:38:56;94369.50;;;10.28;73.53
10261;BME280;5175;42.606;23.388;2024-02-21T10:41:24;94369.00;;;10.36;71.91
10261;BME280;5175;42.606;23.388;2024-02-21T10:43:53;94364.50;;;10.57;71.93
10261;BME280;5175;42.606;23.388;2024-02-21T10:46:21;94366.63;;;10.50;70.34
10261;BME280;5175;42.606;23.388;2024-02-21T10:49:00;94367.47;;;10.60;70.71
10261;BME280;5175;42.606;23.388;2024-02-21T10:51:32;94363.75;;;10.82;70.06
10261;BME280;5175;42.606;23.388;2024-02-21T10:54:11;94359.47;;;10.76;68.20
10261;BME280;5175;42.606;23.388;2024-02-21T10:56:41;94347.47;;;10.68;67.43
10261;BME280;5175;42.606;23.388;2024-02-21T10:59:08;94348.53;;;10.67;68.55
10261;BME280;5175;42.606;23.388;2024-02-21T11:01:35;94348.81;;;10.91;67.87
10261;BME280;5175;42.606;23.388;2024-02-21T11:04:03;94341.88;;;10.90;66.38
10261;BME280;5175;42.606;23.388;2024-02-21T11:06:31;94336.28;;;11.01;66.60
10261;BME280;5175;42.606;23.388;2024-02-21T11:09:00;94341.84;;;11.15;65.93
10261;BME280;5175;42.606;23.388;2024-02-21T11:11:28;94338.38;;;11.04;68.29
10261;BME280;5175;42.606;23.388;2024-02-21T11:14:05;94341.84;;;11.25;66.17
10261;BME280;5175;42.606;23.388;2024-02-21T11:16:35;94345.09;;;11.27;63.53
10261;BME280;5175;42.606;23.388;2024-02-21T11:19:07;94337.56;;;11.39;64.17
10261;BME280;5175;42.606;23.388;2024-02-21T11:21:35;94340.25;;;11.34;63.56
10261;BME280;5175;42.606;23.388;2024-02-21T11:24:02;94334.88;;;11.49;63.37
10261;BME280;5175;42.606;23.388;2024-02-21T11:26:29;94328.72;;;11.59;63.19
10261;BME280;5175;42.606;23.388;2024-02-21T11:28:57;94332.72;;;11.76;62.45
10261;BME280;5175;42.606;23.388;2024-02-21T11:31:26;94322.59;;;11.68;59.58
10261;BME280;5175;42.606;23.388;2024-02-21T11:33:54;94324.94;;;11.80;60.03
10261;BME280;5175;42.606;23.388;2024-02-21T11:36:29;94315.78;;;12.01;59.20
10261;BME280;5175;42.606;23.388;2024-02-21T11:39:03;94324.06;;;12.00;59.85
10261;BME280;5175;42.606;23.388;2024-02-21T11:41:30;94309.66;;;11.96;60.44
10261;BME280;5175;42.606;23.388;2024-02-21T11:43:57;94314.16;;;12.05;58.49
10261;BME280;5175;42.606;23.388;2024-02-21T11:46:25;94313.63;;;12.08;58.03
10261;BME280;5175;42.606;23.388;2024-02-21T11:48:52;94308.41;;;11.78;59.16
10261;BME280;5175;42.606;23.388;2024-02-21T11:51:24;94308.09;;;11.84;57.72
10261;BME280;5175;42.606;23.388;2024-02-21T11:53:52;94291.56;;;11.62;58.50
10261;BME280;5175;42.606;23.388;2024-02-21T11:56:19;94302.34;;;11.32;58.58
10261;BME280;5175;42.606;23.388;2024-02-21T11:58:46;94290.59;;;11.13;59.12
10261;BME280;5175;42.606;23.388;2024-02-21T12:01:13;94303.69;;;10.99;58.67
10261;BME280;5175;42.606;23.388;2024-02-21T12:03:42;94291.16;;;10.80;61.13
10261;BME280;5175;42.606;23.388;2024-02-21T12:06:15;94303.44;;;10.81;60.33
10261;BME280;5175;42.606;23.388;2024-02-21T12:08:45;94298.63;;;10.67;61.29
10261;BME280;5175;42.606;23.388;2024-02-21T12:11:21;94298.63;;;10.62;60.62
10261;BME280;5175;42.606;23.388;2024-02-21T12:13:58;94282.59;;;10.42;61.08
10261;BME280;5175;42.606;23.388;2024-02-21T12:16:27;94288.72;;;10.43;62.88
10261;BME280;5175;42.606;23.388;2024-02-21T12:18:55;94281.50;;;10.28;62.84
10261;BME280;5175;42.606;23.388;2024-02-21T12:21:26;94276.44;;;10.32;64.13
10261;BME280;5175;42.606;23.388;2024-02-21T12:23:54;94251.31;;;10.13;63.37
10261;BME280;5175;42.606;23.388;2024-02-21T12:26:20;94274.31;;;10.44;64.26
10261;BME280;5175;42.606;23.388;2024-02-21T12:28:47;94277.81;;;10.59;64.25
10261;BME280;5175;42.606;23.388;2024-02-21T12:31:14;94267.38;;;10.43;63.50
10261;BME280;5175;42.606;23.388;2024-02-21T12:33:41;94273.28;;;10.55;64.15
10261;BME280;5175;42.606;23.388;2024-02-21T12:36:10;94269.78;;;10.34;62.61
10261;BME280;5175;42.606;23.388;2024-02-21T12:38:36;94268.94;;;10.14;63.19
10261;BME280;5175;42.606;23.388;2024-02-21T12:41:03;94251.19;;;9.72;64.89
10261;BME280;5175;42.606;23.388;2024-02-21T12:43:30;94261.66;;;9.99;65.54
10261;BME280;5175;42.606;23.388;2024-02-21T12:45:57;94259.25;;;9.97;66.23
10261;BME280;5175;42.606;23.388;2024-02-21T12:48:24;94261.13;;;9.97;67.42
10261;BME280;5175;42.606;23.388;2024-02-21T12:50:51;94256.28;;;9.89;67.70
10261;BME280;5175;42.606;23.388;2024-02-21T12:53:19;94258.66;;;9.75;67.84
10261;BME280;5175;42.606;23.388;2024-02-21T12:55:48;94251.72;;;9.74;67.31
10261;BME280;5175;42.606;23.388;2024-02-21T12:58:15;94257.75;;;9.50;68.01
10261;BME280;5175;42.606;23.388;2024-02-21T13:00:42;94243.59;;;9.39;68.59
10261;BME280;5175;42.606;23.388;2024-02-21T13:03:10;94248.44;;;9.52;69.83
10261;BME280;5175;42.606;23.388;2024-02-21T13:05:36;94247.38;;;9.53;70.00